createdAt,value
2018-08-10T00:00:17.141Z,99.90
2018-08-10T00:02:46.659Z,99.90
2018-08-10T00:05:16.145Z,99.90
2018-08-10T00:07:45.533Z,99.90
2018-08-10T00:10:15.261Z,99.90
2018-08-10T00:12:44.659Z,99.90
2018-08-10T00:15:14.937Z,99.90
2018-08-10T00:17:44.342Z,99.90
2018-08-10T00:20:15.725Z,99.90
2018-08-10T00:22:45.556Z,99.90
2018-08-10T00:25:17.530Z,99.90
2018-08-10T00:27:46.934Z,99.90
2018-08-10T00:30:18.539Z,99.90
2018-08-10T00:32:49.106Z,99.90
2018-08-10T00:35:18.636Z,99.90
2018-08-10T00:37:48.873Z,99.90
2018-08-10T00:40:22.174Z,99.90
2018-08-10T00:42:51.598Z,99.90
2018-08-10T00:45:21.349Z,99.90
2018-08-10T00:47:50.698Z,99.90
2018-08-10T00:50:20.065Z,99.90
2018-08-10T00:52:49.556Z,99.90
2018-08-10T00:55:19.797Z,99.90
2018-08-10T00:57:49.689Z,99.90
2018-08-10T01:00:22.593Z,99.90
2018-08-10T01:02:52.917Z,99.90
2018-08-10T01:05:22.425Z,99.90
2018-08-10T01:07:51.837Z,99.90
2018-08-10T01:10:21.634Z,99.90
2018-08-10T01:12:51.030Z,99.90
2018-08-10T01:15:20.549Z,99.90
2018-08-10T01:17:49.982Z,99.90
2018-08-10T01:20:21.278Z,99.90
2018-08-10T01:22:56.006Z,99.90
2018-08-10T01:25:27.151Z,99.90
2018-08-10T01:28:03.836Z,99.90
2018-08-10T01:30:34.570Z,99.90
2018-08-10T01:33:04.094Z,99.90
2018-08-10T01:35:33.574Z,99.90
2018-08-10T01:38:03.490Z,99.90
2018-08-10T01:40:32.938Z,99.90
2018-08-10T01:43:02.391Z,99.90
2018-08-10T01:45:31.794Z,99.90
2018-08-10T01:48:01.282Z,99.90
2018-08-10T01:50:30.683Z,99.90
2018-08-10T01:53:00.066Z,99.90
2018-08-10T01:55:29.841Z,99.90
2018-08-10T01:57:59.243Z,99.90
2018-08-10T02:00:28.719Z,99.90
2018-08-10T02:02:58.219Z,99.90
2018-08-10T02:05:27.760Z,99.90
2018-08-10T02:07:57.177Z,99.90
2018-08-10T02:10:26.710Z,99.90
2018-08-10T02:12:58.202Z,99.90
2018-08-10T02:15:27.703Z,99.90
2018-08-10T02:17:57.123Z,99.90
2018-08-10T02:20:26.812Z,99.90
2018-08-10T02:22:56.226Z,99.90
2018-08-10T02:25:25.636Z,99.90
2018-08-10T02:27:55.058Z,99.90
2018-08-10T02:30:24.534Z,99.90
2018-08-10T02:32:53.930Z,99.90
2018-08-10T02:35:23.419Z,99.90
2018-08-10T02:37:52.830Z,99.90
2018-08-10T02:40:23.366Z,99.90
2018-08-10T02:42:53.383Z,99.90
2018-08-10T02:45:22.882Z,99.90
2018-08-10T02:47:52.295Z,99.90
2018-08-10T02:50:21.719Z,99.90
2018-08-10T02:52:51.046Z,99.90
2018-08-10T02:55:20.409Z,99.90
2018-08-10T02:57:49.756Z,99.90
2018-08-10T03:00:19.104Z,99.90
2018-08-10T03:02:48.438Z,99.90
2018-08-10T03:05:17.822Z,99.90
2018-08-10T03:07:47.144Z,99.90
2018-08-10T03:10:16.558Z,99.90
2018-08-10T03:12:45.886Z,99.90
2018-08-10T03:15:16.522Z,99.90
2018-08-10T03:17:46.327Z,99.90
2018-08-10T03:20:15.807Z,99.90
2018-08-10T03:22:45.196Z,99.90
2018-08-10T03:25:15.265Z,99.90
2018-08-10T03:27:44.625Z,99.90
2018-08-10T03:30:14.461Z,99.90
2018-08-10T03:32:43.787Z,99.90
2018-08-10T03:35:13.205Z,99.90
2018-08-10T03:37:42.629Z,99.90
2018-08-10T03:40:14.945Z,99.90
2018-08-10T03:42:44.553Z,99.90
2018-08-10T03:45:13.994Z,99.90
2018-08-10T03:47:43.372Z,99.90
2018-08-10T03:50:14.206Z,99.90
2018-08-10T03:52:44.102Z,99.90
2018-08-10T03:55:13.621Z,99.90
2018-08-10T03:57:43.025Z,99.90
2018-08-10T04:07:48.557Z,99.90
2018-08-10T04:10:17.953Z,99.90
2018-08-10T04:12:47.355Z,99.90
2018-08-10T04:15:16.777Z,99.90
2018-08-10T04:17:46.213Z,99.90
2018-08-10T04:20:15.598Z,99.90
2018-08-10T04:22:45.041Z,99.90
2018-08-10T04:25:14.425Z,99.90
2018-08-10T04:27:43.933Z,99.90
2018-08-10T04:30:13.338Z,99.90
2018-08-10T04:32:42.853Z,99.90
2018-08-10T04:35:12.273Z,99.90
2018-08-10T04:37:41.753Z,99.90
2018-08-10T04:40:12.481Z,99.90
2018-08-10T04:42:41.970Z,99.90
2018-08-10T04:45:11.359Z,99.90
2018-08-10T04:47:46.093Z,99.90
2018-08-10T04:50:15.661Z,99.90
2018-08-10T04:52:45.078Z,99.90
2018-08-10T04:55:14.580Z,99.90
2018-08-10T04:57:44.004Z,99.90
2018-08-10T05:00:14.562Z,99.90
2018-08-10T05:02:44.015Z,99.90
2018-08-10T05:05:13.421Z,99.90
2018-08-10T05:07:43.188Z,99.90
2018-08-10T05:10:12.548Z,99.90
2018-08-10T05:12:42.110Z,99.90
2018-08-10T05:15:12.219Z,99.90
2018-08-10T05:17:41.669Z,99.90
2018-08-10T05:20:11.937Z,99.90
2018-08-10T05:22:42.077Z,99.90
2018-08-10T05:25:11.438Z,99.90
2018-08-10T05:27:40.784Z,99.90
2018-08-10T05:30:11.413Z,99.90
2018-08-10T05:32:41.614Z,99.90
2018-08-10T05:35:11.426Z,99.90
2018-08-10T05:37:40.969Z,99.90
2018-08-10T05:40:11.052Z,99.90
2018-08-10T05:42:40.477Z,99.90
2018-08-10T05:45:09.853Z,99.90
2018-08-10T05:47:39.461Z,99.90
2018-08-10T05:50:08.966Z,99.90
2018-08-10T05:52:38.520Z,99.90
2018-08-10T05:55:08.182Z,99.90
2018-08-10T05:57:37.955Z,99.90
2018-08-10T06:00:08.171Z,99.90
2018-08-10T06:02:37.810Z,99.90
2018-08-10T06:05:07.325Z,99.90
2018-08-10T06:07:37.118Z,99.90
2018-08-10T06:10:08.482Z,99.90
2018-08-10T06:12:37.929Z,99.90
2018-08-10T06:15:09.507Z,99.90
2018-08-10T06:17:38.878Z,99.90
2018-08-10T06:20:09.172Z,99.90
2018-08-10T06:22:38.621Z,99.90
2018-08-10T06:25:08.288Z,99.90
2018-08-10T06:27:37.664Z,99.90
2018-08-10T06:30:10.853Z,99.90
2018-08-10T06:32:40.471Z,99.90
2018-08-10T06:35:09.821Z,99.90
2018-08-10T06:37:39.217Z,99.90
2018-08-10T06:40:08.608Z,99.90
2018-08-10T06:42:38.009Z,99.90
2018-08-10T06:45:07.861Z,99.90
2018-08-10T06:47:37.325Z,99.90
2018-08-10T06:50:07.241Z,99.90
2018-08-10T06:52:36.723Z,99.90
2018-08-10T06:55:06.187Z,99.90
2018-08-10T07:00:32.900Z,99.90
2018-08-10T07:03:02.278Z,99.90
2018-08-10T07:05:31.781Z,99.90
2018-08-10T07:08:01.153Z,99.90
2018-08-10T07:10:30.593Z,99.90
2018-08-10T07:12:59.983Z,99.90
2018-08-10T07:15:29.382Z,99.90
2018-08-10T07:17:58.775Z,99.90
2018-08-10T07:20:28.182Z,99.90
2018-08-10T07:22:57.575Z,99.90
2018-08-10T07:25:27.008Z,99.90
2018-08-10T07:27:56.438Z,99.90
2018-08-10T07:30:25.906Z,99.90
2018-08-10T07:32:55.311Z,99.90
2018-08-10T07:35:24.788Z,99.90
2018-08-10T07:37:54.186Z,99.90
2018-08-10T07:40:23.614Z,99.90
2018-08-10T07:42:53.003Z,99.90
2018-08-10T07:45:22.411Z,99.90
2018-08-10T07:47:51.789Z,99.90
2018-08-10T07:50:21.227Z,99.90
2018-08-10T07:52:50.631Z,99.90
2018-08-10T07:55:20.025Z,99.90
2018-08-10T07:57:49.431Z,99.90
2018-08-10T08:00:18.923Z,99.90
2018-08-10T08:02:48.331Z,99.90
2018-08-10T08:05:17.700Z,99.90
2018-08-10T08:07:47.126Z,99.90
2018-08-10T08:10:16.540Z,99.90
2018-08-10T08:12:45.942Z,99.90
2018-08-10T08:15:15.348Z,99.90
2018-08-10T08:17:44.755Z,99.90
2018-08-10T08:20:14.238Z,99.90
2018-08-10T08:22:43.633Z,99.90
2018-08-10T08:25:13.020Z,99.90
2018-08-10T08:27:42.448Z,99.90
2018-08-10T08:30:11.884Z,99.90
2018-08-10T08:32:41.363Z,99.90
2018-08-10T08:35:10.815Z,99.90
2018-08-10T08:37:40.187Z,99.90
2018-08-10T08:40:21.171Z,99.90
2018-08-10T08:42:51.176Z,99.90
2018-08-10T08:46:14.193Z,99.90
2018-08-10T08:48:51.129Z,99.90
2018-08-10T08:51:24.115Z,99.90
2018-08-10T08:54:10.485Z,99.90
2018-08-10T08:56:44.285Z,99.90
2018-08-10T08:59:13.757Z,99.90
2018-08-10T09:01:43.183Z,99.90
2018-08-10T09:04:57.784Z,99.90
2018-08-10T09:07:28.469Z,99.20
2018-08-10T09:09:59.049Z,99.80
2018-08-10T09:12:28.759Z,99.90
2018-08-10T09:15:00.504Z,98.70
2018-08-10T09:17:30.012Z,99.00
2018-08-10T09:19:59.494Z,98.30
2018-08-10T09:22:29.334Z,98.40
2018-08-10T09:24:58.871Z,98.30
2018-08-10T09:27:28.286Z,98.10
2018-08-10T09:29:57.720Z,97.70
2018-08-10T09:32:27.135Z,97.00
2018-08-10T09:34:56.667Z,97.30
2018-08-10T09:37:26.099Z,97.50
2018-08-10T09:39:55.555Z,97.60
2018-08-10T09:42:24.975Z,97.10
2018-08-10T09:44:54.467Z,97.50
2018-08-10T09:47:23.871Z,96.90
2018-08-10T09:49:53.363Z,96.40
2018-08-10T09:52:22.796Z,96.00
2018-08-10T09:55:28.351Z,95.20
2018-08-10T09:57:59.367Z,95.30
2018-08-10T10:00:34.303Z,95.40
2018-08-10T10:03:09.123Z,95.20
2018-08-10T10:05:38.550Z,95.40
2018-08-10T10:08:08.030Z,95.80
2018-08-10T10:10:37.442Z,95.60
2018-08-10T10:13:06.948Z,95.20
2018-08-10T10:15:36.410Z,95.30
2018-08-10T10:18:08.134Z,95.40
2018-08-10T10:20:37.615Z,95.10
2018-08-10T10:23:07.521Z,94.20
2018-08-10T10:25:36.959Z,94.80
2018-08-10T10:28:06.718Z,94.70
2018-08-10T10:30:36.129Z,94.90
2018-08-10T10:33:05.671Z,94.50
2018-08-10T10:35:35.094Z,94.20
2018-08-10T10:38:04.613Z,94.50
2018-08-10T10:40:34.017Z,94.60
2018-08-10T10:43:03.455Z,94.20
2018-08-10T10:45:32.859Z,93.80
2018-08-10T10:48:02.354Z,93.60
2018-08-10T10:50:31.767Z,93.40
2018-08-10T10:53:01.219Z,93.70
2018-08-10T10:55:30.625Z,93.40
2018-08-10T10:58:00.069Z,93.00
2018-08-10T11:00:29.465Z,92.90
2018-08-10T11:02:58.976Z,92.90
2018-08-10T11:05:28.375Z,92.70
2018-08-10T11:07:57.879Z,92.80
2018-08-10T11:10:27.293Z,92.90
2018-08-10T11:12:56.690Z,92.90
2018-08-10T11:15:26.119Z,93.40
2018-08-10T11:17:55.621Z,92.70
2018-08-10T11:20:25.036Z,93.20
2018-08-10T11:22:54.519Z,93.10
2018-08-10T11:25:24.046Z,92.80
2018-08-10T11:27:53.434Z,92.90
2018-08-10T11:30:22.929Z,93.00
2018-08-10T11:32:52.280Z,92.80
2018-08-10T11:35:21.751Z,93.20
2018-08-10T11:37:51.215Z,92.10
2018-08-10T11:40:20.638Z,91.30
2018-08-10T11:42:50.155Z,90.60
2018-08-10T11:45:19.612Z,90.60
2018-08-10T11:47:49.084Z,91.30
2018-08-10T11:50:18.467Z,91.00
2018-08-10T11:52:47.967Z,91.00
2018-08-10T11:55:17.335Z,91.20
2018-08-10T11:57:46.884Z,91.20
2018-08-10T12:00:16.661Z,91.40
2018-08-10T12:02:46.173Z,91.00
2018-08-10T12:05:15.562Z,91.70
2018-08-10T12:07:45.091Z,92.20
2018-08-10T12:10:14.494Z,91.70
2018-08-10T12:12:44.037Z,92.20
2018-08-10T12:15:14.123Z,92.60
2018-08-10T12:17:43.640Z,92.20
2018-08-10T12:20:13.062Z,92.00
2018-08-10T12:22:42.726Z,92.30
2018-08-10T12:25:12.142Z,92.00
2018-08-10T12:27:41.664Z,92.30
2018-08-10T12:30:13.038Z,92.30
2018-08-10T12:32:42.833Z,92.30
2018-08-10T12:35:12.615Z,92.40
2018-08-10T12:37:42.413Z,91.50
2018-08-10T12:40:11.827Z,91.30
2018-08-10T12:42:41.351Z,90.50
2018-08-10T12:45:10.766Z,90.40
2018-08-10T12:47:40.336Z,91.00
2018-08-10T12:50:10.387Z,91.50
2018-08-10T12:52:40.067Z,91.80
2018-08-10T12:55:09.500Z,92.00
2018-08-10T12:57:38.955Z,91.60
2018-08-10T13:00:11.251Z,91.60
2018-08-10T13:02:41.258Z,91.00
2018-08-10T13:05:10.594Z,91.70
2018-08-10T13:07:40.041Z,90.80
2018-08-10T13:10:11.219Z,90.00
2018-08-10T13:12:40.684Z,89.10
2018-08-10T13:15:12.069Z,89.50
2018-08-10T13:17:41.549Z,90.10
2018-08-10T13:20:13.030Z,90.50
2018-08-10T13:22:42.515Z,90.00
2018-08-10T13:25:12.232Z,90.60
2018-08-10T13:27:41.650Z,90.30
2018-08-10T13:30:12.759Z,90.50
2018-08-10T13:32:44.559Z,90.10
2018-08-10T13:35:18.932Z,86.30
2018-08-10T13:37:49.248Z,87.40
2018-08-10T13:40:18.681Z,86.70
2018-08-10T13:42:48.393Z,83.50
2018-08-10T13:45:18.158Z,81.90
2018-08-10T13:47:47.806Z,83.30
2018-08-10T13:50:20.385Z,85.70
2018-08-10T13:52:50.636Z,86.50
2018-08-10T13:55:22.889Z,86.40
2018-08-10T13:57:53.485Z,86.30
2018-08-10T14:00:25.836Z,82.80
2018-08-10T14:02:56.396Z,81.70
2018-08-10T14:05:27.220Z,80.70
2018-08-10T14:07:57.784Z,80.50
2018-08-10T14:10:29.460Z,78.80
2018-08-10T14:12:59.131Z,77.80
2018-08-10T14:15:28.915Z,76.70
2018-08-10T14:18:00.255Z,73.90
2018-08-10T14:20:30.068Z,77.80
2018-08-10T14:23:00.915Z,79.00
2018-08-10T14:32:37.513Z,78.00
2018-08-10T14:35:07.166Z,77.20
2018-08-10T14:37:37.669Z,78.60
2018-08-10T14:40:09.537Z,79.30
2018-08-10T14:42:38.951Z,75.00
2018-08-10T14:45:14.434Z,99.90
2018-08-10T14:47:43.886Z,99.90
2018-08-10T14:50:14.843Z,99.90
2018-08-10T14:52:44.294Z,99.70
2018-08-10T14:55:15.662Z,74.60
2018-08-10T14:57:45.103Z,99.90
2018-08-10T15:00:18.080Z,99.10
2018-08-10T15:02:47.815Z,99.10
2018-08-10T15:05:17.502Z,99.00
2018-08-10T15:07:46.915Z,98.30
2018-08-10T15:10:17.385Z,99.00
2018-08-10T15:12:47.551Z,99.00
2018-08-10T15:15:18.409Z,99.50
2018-08-10T15:17:48.309Z,99.70
2018-08-10T15:20:21.615Z,98.60
2018-08-10T15:22:51.004Z,81.30
2018-08-10T15:25:20.558Z,78.40
2018-08-10T15:27:49.997Z,73.30
2018-08-10T15:30:19.947Z,54.40
2018-08-10T15:32:49.380Z,44.50
2018-08-10T15:35:18.847Z,32.20
2018-08-10T15:37:48.239Z,24.80
2018-08-10T15:40:19.187Z,24.60
2018-08-10T15:42:48.596Z,22.70
2018-08-10T15:45:18.714Z,25.20
2018-08-10T15:47:48.240Z,22.50
2018-08-10T15:50:18.029Z,29.80
2018-08-10T15:59:46.966Z,23.20
2018-08-10T16:02:16.424Z,38.00
2018-08-10T16:04:45.871Z,38.90
2018-08-10T16:07:15.284Z,47.70
2018-08-10T16:09:44.758Z,40.10
2018-08-10T16:12:14.150Z,32.90
2018-08-10T16:14:43.589Z,31.80
2018-08-10T16:17:13.007Z,25.10
2018-08-10T16:19:44.666Z,31.80
2018-08-10T16:22:14.071Z,43.00
2018-08-10T16:24:43.550Z,37.80
2018-08-10T16:27:13.258Z,38.40
2018-08-10T16:29:43.663Z,45.30
2018-08-10T16:32:13.093Z,49.20
2018-08-10T16:34:42.598Z,53.60
2018-08-10T16:37:12.018Z,55.70
2018-08-10T16:39:41.485Z,61.60
2018-08-10T16:42:10.890Z,59.70
2018-08-10T16:44:40.416Z,63.10
2018-08-10T16:47:09.815Z,63.10
2018-08-10T16:49:39.266Z,67.20
2018-08-10T16:52:09.099Z,61.00
2018-08-10T16:54:38.488Z,61.50
2018-08-10T16:57:07.890Z,58.60
2018-08-10T16:59:37.299Z,60.80
2018-08-10T17:02:06.686Z,65.20
2018-08-10T17:04:36.148Z,73.60
2018-08-10T17:07:05.442Z,66.20
2018-08-10T17:09:34.914Z,69.20
2018-08-10T17:12:04.294Z,60.90
2018-08-10T17:14:33.719Z,58.00
2018-08-10T17:17:03.082Z,53.00
2018-08-10T17:19:32.538Z,52.50
2018-08-10T17:22:01.908Z,49.60
2018-08-10T17:24:31.434Z,52.40
2018-08-10T17:27:00.806Z,50.10
2018-08-10T17:29:30.246Z,49.50
2018-08-10T17:31:59.629Z,48.80
2018-08-10T17:34:29.037Z,49.80
2018-08-10T17:36:58.447Z,53.60
2018-08-10T17:39:27.837Z,53.20
2018-08-10T17:41:57.202Z,58.10
2018-08-10T17:44:26.734Z,61.30
2018-08-10T17:46:56.165Z,63.70
2018-08-10T17:49:25.597Z,66.30
2018-08-10T17:51:55.004Z,67.20
2018-08-10T17:54:24.509Z,68.80
2018-08-10T17:56:52.923Z,71.40
2018-08-10T17:59:22.381Z,83.60
2018-08-10T18:01:51.790Z,84.40
2018-08-10T18:04:21.270Z,81.20
2018-08-10T18:06:50.674Z,86.30
2018-08-10T18:09:20.199Z,84.90
2018-08-10T18:11:49.606Z,84.60
2018-08-10T18:14:19.116Z,90.00
2018-08-10T18:16:48.529Z,90.10
2018-08-10T18:19:17.944Z,91.60
2018-08-10T18:21:47.458Z,95.90
2018-08-10T18:24:17.048Z,96.40
2018-08-10T18:26:46.593Z,96.80
2018-08-10T18:29:16.539Z,96.90
2018-08-10T18:31:46.655Z,96.80
2018-08-10T18:34:16.276Z,97.10
2018-08-10T18:36:45.616Z,97.20
2018-08-10T18:39:15.363Z,97.50
2018-08-10T18:41:44.830Z,97.20
2018-08-10T18:44:14.286Z,97.20
2018-08-10T18:46:43.726Z,97.10
2018-08-10T18:49:13.421Z,97.00
2018-08-10T18:51:42.917Z,97.70
2018-08-10T18:54:12.441Z,97.30
2018-08-10T18:56:41.951Z,94.40
2018-08-10T18:59:11.554Z,97.30
2018-08-10T19:01:41.390Z,97.40
2018-08-10T19:04:10.893Z,97.10
2018-08-10T19:06:40.494Z,97.10
2018-08-10T19:09:11.177Z,97.30
2018-08-10T19:11:40.674Z,97.40
2018-08-10T19:14:10.238Z,97.10
2018-08-10T19:16:39.667Z,97.20
2018-08-10T19:19:09.287Z,98.00
2018-08-10T19:21:38.817Z,97.40
2018-08-10T19:24:08.308Z,98.00
2018-08-10T19:26:37.829Z,99.90
2018-08-10T19:29:07.447Z,99.90
2018-08-10T19:31:36.839Z,99.90
2018-08-10T19:34:06.549Z,99.90
2018-08-10T19:36:36.063Z,99.90
2018-08-10T19:39:08.259Z,99.90
2018-08-10T19:41:38.179Z,99.90
2018-08-10T19:44:07.783Z,99.90
2018-08-10T19:46:37.255Z,99.90
2018-08-10T19:49:06.736Z,99.90
2018-08-10T19:51:36.271Z,99.90
2018-08-10T19:54:05.679Z,99.90
2018-08-10T19:56:35.162Z,99.90
2018-08-10T19:59:04.660Z,99.90
2018-08-10T20:01:34.191Z,99.90
2018-08-10T20:04:03.622Z,99.90
2018-08-10T20:06:33.267Z,99.90
2018-08-10T20:09:02.776Z,99.90
2018-08-10T20:11:32.271Z,99.90
2018-08-10T20:14:01.741Z,99.90
2018-08-10T20:16:31.131Z,99.90
2018-08-10T20:19:00.560Z,99.90
2018-08-10T20:21:30.209Z,99.90
2018-08-10T20:23:59.959Z,99.90
2018-08-10T20:26:29.422Z,99.90
2018-08-10T20:28:58.929Z,99.90
2018-08-10T20:31:28.603Z,99.90
2018-08-10T20:33:58.122Z,99.90
2018-08-10T20:36:27.559Z,99.90
2018-08-10T20:38:57.249Z,99.90
2018-08-10T20:41:26.519Z,99.90
2018-08-10T20:43:56.055Z,99.90
2018-08-10T20:46:25.424Z,99.90
2018-08-10T20:48:54.846Z,99.90
2018-08-10T20:51:24.221Z,99.90
2018-08-10T20:53:53.639Z,99.90
2018-08-10T20:56:23.035Z,99.90
2018-08-10T20:58:52.405Z,99.90
2018-08-10T21:01:21.836Z,99.90
2018-08-10T21:03:51.324Z,99.90
2018-08-10T21:06:20.692Z,99.90
2018-08-10T21:08:50.058Z,99.90
2018-08-10T21:11:19.433Z,99.90
2018-08-10T21:13:48.814Z,99.90
2018-08-10T21:16:18.263Z,99.90
2018-08-10T21:18:47.674Z,99.90
2018-08-10T21:21:17.192Z,99.90
2018-08-10T21:23:46.556Z,1.00
2018-08-10T21:26:15.942Z,99.90
2018-08-10T21:28:45.318Z,99.90
2018-08-10T21:31:15.112Z,1.00
2018-08-10T21:33:44.499Z,99.90
2018-08-10T21:36:13.987Z,37.30
2018-08-10T21:38:43.338Z,90.70
2018-08-10T21:41:12.815Z,91.90
2018-08-10T21:43:42.196Z,92.40
2018-08-10T21:46:11.592Z,92.10
2018-08-10T21:48:41.003Z,92.40
2018-08-10T21:51:10.445Z,92.60
2018-08-10T21:53:39.925Z,92.80
2018-08-10T21:56:09.329Z,93.80
2018-08-10T21:58:38.736Z,93.50
2018-08-10T22:01:08.270Z,94.30
2018-08-10T22:03:37.687Z,93.40
2018-08-10T22:06:07.475Z,94.30
2018-08-10T22:08:36.894Z,94.30
2018-08-10T22:11:06.355Z,94.40
2018-08-10T22:13:41.000Z,94.60
2018-08-10T22:17:15.619Z,94.40
2018-08-10T22:19:45.135Z,94.30
2018-08-10T22:22:14.595Z,94.80
2018-08-10T22:24:44.029Z,95.20
2018-08-10T22:27:13.449Z,95.20
2018-08-10T22:29:42.947Z,95.40
2018-08-10T22:32:12.370Z,95.70
2018-08-10T22:34:41.831Z,95.60
2018-08-10T22:37:11.238Z,95.50
2018-08-10T22:39:40.760Z,95.40
2018-08-10T22:42:10.268Z,96.70
2018-08-10T22:44:39.800Z,97.40
2018-08-10T22:47:09.233Z,96.70
2018-08-10T22:49:38.710Z,97.20
2018-08-10T22:52:08.123Z,98.10
2018-08-10T22:54:37.579Z,98.50
2018-08-10T22:57:07.001Z,96.70
2018-08-10T22:59:36.472Z,96.60
2018-08-10T23:02:05.911Z,95.40
2018-08-10T23:04:35.446Z,95.10
2018-08-10T23:07:05.088Z,94.60
2018-08-10T23:09:34.491Z,94.40
2018-08-10T23:12:03.909Z,94.90
2018-08-10T23:14:33.643Z,95.20
2018-08-10T23:17:03.107Z,96.80
2018-08-10T23:19:32.510Z,97.60
2018-08-10T23:22:01.897Z,97.80
2018-08-10T23:24:31.315Z,98.30
2018-08-10T23:27:00.718Z,99.00
2018-08-10T23:29:30.264Z,99.20
2018-08-10T23:31:59.670Z,99.90
2018-08-10T23:34:30.244Z,99.90
2018-08-10T23:36:59.639Z,99.90
2018-08-10T23:39:29.075Z,99.90
2018-08-10T23:41:58.495Z,99.90
2018-08-10T23:44:27.971Z,99.90
2018-08-10T23:46:57.413Z,99.90
2018-08-10T23:49:26.863Z,99.90
2018-08-10T23:51:56.243Z,99.90
2018-08-10T23:54:25.771Z,99.90
2018-08-10T23:56:55.146Z,99.90
2018-08-10T23:59:24.594Z,99.90
